sensor_id;sensor_type;location;lat;lon;timestamp;temperature;humidity
54082;DHT22;39986;50.770;0.266;2022-12-16T00:02:01;1.40;99.90
54082;DHT22;39986;50.770;0.266;2022-12-16T00:04:26;1.00;99.90
54082;DHT22;39986;50.770;0.266;2022-12-16T00:06:52;1.00;99.90
54082;DHT22;39986;50.770;0.266;2022-12-16T00:09:17;1.00;99.90
54082;DHT22;39986;50.770;0.266;2022-12-16T00:11:43;1.00;99.90
54082;DHT22;39986;50.770;0.266;2022-12-16T00:14:09;1.00;99.90
54082;DHT22;39986;50.770;0.266;2022-12-16T00:16:34;0.90;99.90
54082;DHT22;39986;50.770;0.266;2022-12-16T00:19:00;0.90;99.90
54082;DHT22;39986;50.770;0.266;2022-12-16T00:21:25;0.90;99.90
54082;DHT22;39986;50.770;0.266;2022-12-16T00:23:57;1.00;99.90
54082;DHT22;39986;50.770;0.266;2022-12-16T00:26:23;0.90;99.90
54082;DHT22;39986;50.770;0.266;2022-12-16T00:28:49;1.80;99.90
54082;DHT22;39986;50.770;0.266;2022-12-16T00:31:14;1.00;99.90
54082;DHT22;39986;50.770;0.266;2022-12-16T00:33:40;1.00;99.90
54082;DHT22;39986;50.770;0.266;2022-12-16T00:36:06;0.90;99.90
54082;DHT22;39986;50.770;0.266;2022-12-16T00:38:32;0.90;99.90
54082;DHT22;39986;50.770;0.266;2022-12-16T00:40:57;0.90;99.90
54082;DHT22;39986;50.770;0.266;2022-12-16T00:43:23;0.90;99.90
54082;DHT22;39986;50.770;0.266;2022-12-16T00:45:49;0.90;99.90
54082;DHT22;39986;50.770;0.266;2022-12-16T00:48:20;0.90;99.90
54082;DHT22;39986;50.770;0.266;2022-12-16T00:50:50;0.90;99.90
54082;DHT22;39986;50.770;0.266;2022-12-16T00:53:16;0.90;99.90
54082;DHT22;39986;50.770;0.266;2022-12-16T00:55:41;3.20;99.90
54082;DHT22;39986;50.770;0.266;2022-12-16T00:58:07;0.90;99.90
54082;DHT22;39986;50.770;0.266;2022-12-16T01:00:33;0.90;99.90
54082;DHT22;39986;50.770;0.266;2022-12-16T01:02:59;0.90;99.90
54082;DHT22;39986;50.770;0.266;2022-12-16T01:05:25;0.90;99.90
54082;DHT22;39986;50.770;0.266;2022-12-16T01:07:54;0.90;99.90
54082;DHT22;39986;50.770;0.266;2022-12-16T01:10:20;0.90;99.90
54082;DHT22;39986;50.770;0.266;2022-12-16T01:12:46;0.90;99.90
54082;DHT22;39986;50.770;0.266;2022-12-16T01:15:12;0.90;99.90
54082;DHT22;39986;50.770;0.266;2022-12-16T01:17:39;0.90;99.90
54082;DHT22;39986;50.770;0.266;2022-12-16T01:20:05;0.80;99.90
54082;DHT22;39986;50.770;0.266;2022-12-16T01:22:31;0.90;99.90
54082;DHT22;39986;50.770;0.266;2022-12-16T01:24:57;0.80;99.90
54082;DHT22;39986;50.770;0.266;2022-12-16T01:27:23;1.60;99.90
54082;DHT22;39986;50.770;0.266;2022-12-16T01:29:49;0.80;99.90
54082;DHT22;39986;50.770;0.266;2022-12-16T01:32:15;0.80;99.90
54082;DHT22;39986;50.770;0.266;2022-12-16T01:34:40;0.80;99.90
54082;DHT22;39986;50.770;0.266;2022-12-16T01:37:08;0.80;99.90
54082;DHT22;39986;50.770;0.266;2022-12-16T01:39:35;0.80;99.90
54082;DHT22;39986;50.770;0.266;2022-12-16T01:42:00;0.80;99.90
54082;DHT22;39986;50.770;0.266;2022-12-16T01:44:26;0.70;99.90
54082;DHT22;39986;50.770;0.266;2022-12-16T01:46:55;0.60;99.90
54082;DHT22;39986;50.770;0.266;2022-12-16T01:49:41;0.60;99.90
54082;DHT22;39986;50.770;0.266;2022-12-16T01:52:09;0.60;99.90
54082;DHT22;39986;50.770;0.266;2022-12-16T01:54:38;0.60;99.90
54082;DHT22;39986;50.770;0.266;2022-12-16T01:57:06;0.60;99.90
54082;DHT22;39986;50.770;0.266;2022-12-16T01:59:33;0.60;99.90
54082;DHT22;39986;50.770;0.266;2022-12-16T02:02:00;0.60;99.90
54082;DHT22;39986;50.770;0.266;2022-12-16T02:04:26;0.60;99.90
54082;DHT22;39986;50.770;0.266;2022-12-16T02:06:52;0.60;99.90
54082;DHT22;39986;50.770;0.266;2022-12-16T02:09:18;0.50;99.90
54082;DHT22;39986;50.770;0.266;2022-12-16T02:22:09;0.50;99.90
54082;DHT22;39986;50.770;0.266;2022-12-16T02:24:46;0.60;99.90
54082;DHT22;39986;50.770;0.266;2022-12-16T02:32:27;0.50;99.90
54082;DHT22;39986;50.770;0.266;2022-12-16T02:40:10;0.40;99.90
54082;DHT22;39986;50.770;0.266;2022-12-16T02:42:43;1.20;99.90
54082;DHT22;39986;50.770;0.266;2022-12-16T02:45:17;0.40;99.90
54082;DHT22;39986;50.770;0.266;2022-12-16T02:47:44;0.40;99.90
54082;DHT22;39986;50.770;0.266;2022-12-16T02:50:54;0.50;99.90
54082;DHT22;39986;50.770;0.266;2022-12-16T02:53:20;0.50;99.90
54082;DHT22;39986;50.770;0.266;2022-12-16T02:55:54;0.50;99.90
54082;DHT22;39986;50.770;0.266;2022-12-16T03:03:29;0.50;99.90
54082;DHT22;39986;50.770;0.266;2022-12-16T03:05:56;0.40;99.90
54082;DHT22;39986;50.770;0.266;2022-12-16T03:08:26;0.50;99.90
54082;DHT22;39986;50.770;0.266;2022-12-16T03:10:55;0.60;99.90
54082;DHT22;39986;50.770;0.266;2022-12-16T03:13:21;0.50;99.90
54082;DHT22;39986;50.770;0.266;2022-12-16T03:15:48;0.50;99.90
54082;DHT22;39986;50.770;0.266;2022-12-16T03:18:16;0.50;99.90
54082;DHT22;39986;50.770;0.266;2022-12-16T03:20:45;0.50;99.90
54082;DHT22;39986;50.770;0.266;2022-12-16T03:23:13;0.50;99.90
54082;DHT22;39986;50.770;0.266;2022-12-16T03:25:41;0.50;99.90
54082;DHT22;39986;50.770;0.266;2022-12-16T03:30:37;0.60;99.90
54082;DHT22;39986;50.770;0.266;2022-12-16T03:36:34;0.60;99.90
54082;DHT22;39986;50.770;0.266;2022-12-16T03:38:53;0.60;99.90
54082;DHT22;39986;50.770;0.266;2022-12-16T03:41:19;1.20;99.90
54082;DHT22;39986;50.770;0.266;2022-12-16T03:43:47;0.60;99.90
54082;DHT22;39986;50.770;0.266;2022-12-16T03:46:15;0.60;99.90
54082;DHT22;39986;50.770;0.266;2022-12-16T03:49:06;0.50;99.90
54082;DHT22;39986;50.770;0.266;2022-12-16T03:51:32;0.60;99.90
54082;DHT22;39986;50.770;0.266;2022-12-16T03:53:57;0.50;99.90
54082;DHT22;39986;50.770;0.266;2022-12-16T03:56:23;0.50;99.90
54082;DHT22;39986;50.770;0.266;2022-12-16T03:58:48;0.70;99.90
54082;DHT22;39986;50.770;0.266;2022-12-16T04:01:14;0.50;99.90
54082;DHT22;39986;50.770;0.266;2022-12-16T04:03:39;0.50;99.90
54082;DHT22;39986;50.770;0.266;2022-12-16T04:06:06;0.40;99.90
54082;DHT22;39986;50.770;0.266;2022-12-16T04:08:32;0.50;99.90
54082;DHT22;39986;50.770;0.266;2022-12-16T04:10:57;0.50;99.90
54082;DHT22;39986;50.770;0.266;2022-12-16T04:13:41;0.50;99.90
54082;DHT22;39986;50.770;0.266;2022-12-16T04:16:26;0.50;99.90
54082;DHT22;39986;50.770;0.266;2022-12-16T04:19:17;0.50;99.90
54082;DHT22;39986;50.770;0.266;2022-12-16T04:22:03;0.50;99.90
54082;DHT22;39986;50.770;0.266;2022-12-16T04:24:47;0.60;99.90
54082;DHT22;39986;50.770;0.266;2022-12-16T04:27:12;0.40;99.90
54082;DHT22;39986;50.770;0.266;2022-12-16T04:29:52;0.50;99.90
54082;DHT22;39986;50.770;0.266;2022-12-16T04:32:36;0.50;99.90
54082;DHT22;39986;50.770;0.266;2022-12-16T04:35:20;2.10;99.90
54082;DHT22;39986;50.770;0.266;2022-12-16T04:38:04;0.50;99.90
54082;DHT22;39986;50.770;0.266;2022-12-16T04:40:48;0.50;99.90
54082;DHT22;39986;50.770;0.266;2022-12-16T04:43:33;0.60;99.90
54082;DHT22;39986;50.770;0.266;2022-12-16T04:46:18;0.50;99.90
54082;DHT22;39986;50.770;0.266;2022-12-16T04:49:09;0.40;99.90
54082;DHT22;39986;50.770;0.266;2022-12-16T04:51:57;1.20;99.90
54082;DHT22;39986;50.770;0.266;2022-12-16T04:54:41;0.40;99.90
54082;DHT22;39986;50.770;0.266;2022-12-16T04:57:25;0.50;99.90
54082;DHT22;39986;50.770;0.266;2022-12-16T05:00:09;0.40;99.90
54082;DHT22;39986;50.770;0.266;2022-12-16T05:02:53;0.40;99.90
54082;DHT22;39986;50.770;0.266;2022-12-16T05:05:37;0.40;99.90
54082;DHT22;39986;50.770;0.266;2022-12-16T05:08:21;0.40;99.90
54082;DHT22;39986;50.770;0.266;2022-12-16T05:11:05;0.30;99.90
54082;DHT22;39986;50.770;0.266;2022-12-16T05:13:49;0.30;99.90
54082;DHT22;39986;50.770;0.266;2022-12-16T05:16:33;0.30;99.90
54082;DHT22;39986;50.770;0.266;2022-12-16T05:19:17;0.20;99.90
54082;DHT22;39986;50.770;0.266;2022-12-16T05:22:01;0.20;99.90
54082;DHT22;39986;50.770;0.266;2022-12-16T05:24:46;0.20;99.90
54082;DHT22;39986;50.770;0.266;2022-12-16T05:27:30;0.20;99.90
54082;DHT22;39986;50.770;0.266;2022-12-16T05:30:14;0.30;99.90
54082;DHT22;39986;50.770;0.266;2022-12-16T05:32:58;0.20;99.90
54082;DHT22;39986;50.770;0.266;2022-12-16T05:35:42;0.20;99.90
54082;DHT22;39986;50.770;0.266;2022-12-16T05:38:26;0.20;99.90
54082;DHT22;39986;50.770;0.266;2022-12-16T05:41:10;0.20;99.90
54082;DHT22;39986;50.770;0.266;2022-12-16T05:43:54;0.20;99.90
54082;DHT22;39986;50.770;0.266;2022-12-16T05:46:38;0.20;99.90
54082;DHT22;39986;50.770;0.266;2022-12-16T05:49:23;0.20;99.90
54082;DHT22;39986;50.770;0.266;2022-12-16T05:52:07;0.20;99.90
54082;DHT22;39986;50.770;0.266;2022-12-16T05:54:51;0.20;99.90
54082;DHT22;39986;50.770;0.266;2022-12-16T05:57:35;0.20;99.90
54082;DHT22;39986;50.770;0.266;2022-12-16T06:00:20;0.20;99.90
54082;DHT22;39986;50.770;0.266;2022-12-16T06:03:04;0.20;99.90
54082;DHT22;39986;50.770;0.266;2022-12-16T06:05:58;0.30;99.90
54082;DHT22;39986;50.770;0.266;2022-12-16T06:08:42;0.30;99.90
54082;DHT22;39986;50.770;0.266;2022-12-16T06:11:26;0.30;99.90
54082;DHT22;39986;50.770;0.266;2022-12-16T06:14:10;0.20;99.90
54082;DHT22;39986;50.770;0.266;2022-12-16T06:16:54;0.90;99.90
54082;DHT22;39986;50.770;0.266;2022-12-16T06:19:38;0.30;99.90
54082;DHT22;39986;50.770;0.266;2022-12-16T06:22:23;0.30;99.90
54082;DHT22;39986;50.770;0.266;2022-12-16T06:25:07;0.30;99.90
54082;DHT22;39986;50.770;0.266;2022-12-16T06:27:51;0.40;99.90
54082;DHT22;39986;50.770;0.266;2022-12-16T06:30:35;0.80;99.90
54082;DHT22;39986;50.770;0.266;2022-12-16T06:33:19;0.30;99.90
54082;DHT22;39986;50.770;0.266;2022-12-16T06:36:03;0.20;99.90
54082;DHT22;39986;50.770;0.266;2022-12-16T06:38:48;0.30;99.90
54082;DHT22;39986;50.770;0.266;2022-12-16T06:41:32;0.30;99.90
54082;DHT22;39986;50.770;0.266;2022-12-16T06:44:20;0.40;99.90
54082;DHT22;39986;50.770;0.266;2022-12-16T06:47:05;0.30;99.90
54082;DHT22;39986;50.770;0.266;2022-12-16T06:49:49;0.20;99.90
54082;DHT22;39986;50.770;0.266;2022-12-16T06:55:43;0.30;99.90
54082;DHT22;39986;50.770;0.266;2022-12-16T06:58:34;0.20;99.90
54082;DHT22;39986;50.770;0.266;2022-12-16T07:01:18;0.20;99.90
54082;DHT22;39986;50.770;0.266;2022-12-16T07:04:02;0.20;99.90
54082;DHT22;39986;50.770;0.266;2022-12-16T07:06:46;0.20;99.90
54082;DHT22;39986;50.770;0.266;2022-12-16T07:09:32;0.30;99.90
54082;DHT22;39986;50.770;0.266;2022-12-16T07:12:16;0.30;99.90
54082;DHT22;39986;50.770;0.266;2022-12-16T07:15:00;0.30;99.90
54082;DHT22;39986;50.770;0.266;2022-12-16T07:17:44;0.30;99.90
54082;DHT22;39986;50.770;0.266;2022-12-16T07:20:28;0.30;99.90
54082;DHT22;39986;50.770;0.266;2022-12-16T07:23:12;0.30;99.90
54082;DHT22;39986;50.770;0.266;2022-12-16T07:25:56;1.20;99.90
54082;DHT22;39986;50.770;0.266;2022-12-16T07:28:40;0.30;99.90
54082;DHT22;39986;50.770;0.266;2022-12-16T07:31:24;0.30;99.90
54082;DHT22;39986;50.770;0.266;2022-12-16T07:34:08;0.30;99.90
54082;DHT22;39986;50.770;0.266;2022-12-16T07:36:52;0.30;99.90
54082;DHT22;39986;50.770;0.266;2022-12-16T07:39:38;0.20;99.90
54082;DHT22;39986;50.770;0.266;2022-12-16T07:42:22;0.30;99.90
54082;DHT22;39986;50.770;0.266;2022-12-16T07:45:06;0.30;99.90
54082;DHT22;39986;50.770;0.266;2022-12-16T07:47:50;0.30;99.90
54082;DHT22;39986;50.770;0.266;2022-12-16T07:50:36;0.30;99.90
54082;DHT22;39986;50.770;0.266;2022-12-16T07:53:20;0.30;99.90
54082;DHT22;39986;50.770;0.266;2022-12-16T07:56:04;0.30;99.90
54082;DHT22;39986;50.770;0.266;2022-12-16T07:58:48;0.30;99.90
54082;DHT22;39986;50.770;0.266;2022-12-16T08:01:33;0.30;99.90
54082;DHT22;39986;50.770;0.266;2022-12-16T08:04:17;0.30;99.90
54082;DHT22;39986;50.770;0.266;2022-12-16T08:07:01;0.30;99.90
54082;DHT22;39986;50.770;0.266;2022-12-16T08:09:49;0.40;99.90
54082;DHT22;39986;50.770;0.266;2022-12-16T08:12:33;0.50;99.90
54082;DHT22;39986;50.770;0.266;2022-12-16T08:15:17;0.60;99.90
54082;DHT22;39986;50.770;0.266;2022-12-16T08:18:01;0.60;99.90
54082;DHT22;39986;50.770;0.266;2022-12-16T08:20:46;0.70;99.90
54082;DHT22;39986;50.770;0.266;2022-12-16T08:23:30;0.70;99.90
54082;DHT22;39986;50.770;0.266;2022-12-16T08:26:14;0.60;99.90
54082;DHT22;39986;50.770;0.266;2022-12-16T08:28:58;0.70;99.90
54082;DHT22;39986;50.770;0.266;2022-12-16T08:31:42;0.70;99.90
54082;DHT22;39986;50.770;0.266;2022-12-16T08:34:26;0.70;99.90
54082;DHT22;39986;50.770;0.266;2022-12-16T08:37:10;0.80;99.90
54082;DHT22;39986;50.770;0.266;2022-12-16T08:39:54;0.90;99.90
54082;DHT22;39986;50.770;0.266;2022-12-16T08:42:38;1.60;99.90
54082;DHT22;39986;50.770;0.266;2022-12-16T08:45:22;1.00;99.90
54082;DHT22;39986;50.770;0.266;2022-12-16T08:48:07;1.60;99.90
54082;DHT22;39986;50.770;0.266;2022-12-16T08:50:51;1.50;99.90
54082;DHT22;39986;50.770;0.266;2022-12-16T08:53:35;1.60;99.90
54082;DHT22;39986;50.770;0.266;2022-12-16T08:56:20;2.40;99.90
54082;DHT22;39986;50.770;0.266;2022-12-16T08:59:04;2.00;99.90
54082;DHT22;39986;50.770;0.266;2022-12-16T09:01:48;2.30;99.90
54082;DHT22;39986;50.770;0.266;2022-12-16T09:04:32;4.70;99.90
54082;DHT22;39986;50.770;0.266;2022-12-16T09:07:16;2.60;99.90
54082;DHT22;39986;50.770;0.266;2022-12-16T09:10:00;2.70;99.90
54082;DHT22;39986;50.770;0.266;2022-12-16T09:12:44;2.70;99.90
54082;DHT22;39986;50.770;0.266;2022-12-16T09:15:28;2.80;99.90
54082;DHT22;39986;50.770;0.266;2022-12-16T09:18:12;2.90;99.90
54082;DHT22;39986;50.770;0.266;2022-12-16T09:20:56;3.10;99.90
54082;DHT22;39986;50.770;0.266;2022-12-16T09:23:41;3.90;99.90
54082;DHT22;39986;50.770;0.266;2022-12-16T09:26:25;3.60;99.90
54082;DHT22;39986;50.770;0.266;2022-12-16T09:29:09;3.80;99.90
54082;DHT22;39986;50.770;0.266;2022-12-16T09:31:53;4.00;99.90
54082;DHT22;39986;50.770;0.266;2022-12-16T09:34:44;4.20;99.90
54082;DHT22;39986;50.770;0.266;2022-12-16T09:37:30;4.70;99.90
54082;DHT22;39986;50.770;0.266;2022-12-16T09:40:14;4.70;99.90
54082;DHT22;39986;50.770;0.266;2022-12-16T09:43:03;5.10;99.90
54082;DHT22;39986;50.770;0.266;2022-12-16T09:46:09;5.40;99.90
54082;DHT22;39986;50.770;0.266;2022-12-16T09:49:22;5.40;99.90
54082;DHT22;39986;50.770;0.266;2022-12-16T09:52:07;5.80;99.90
54082;DHT22;39986;50.770;0.266;2022-12-16T09:54:55;6.40;99.90
54082;DHT22;39986;50.770;0.266;2022-12-16T09:57:39;6.30;99.90
54082;DHT22;39986;50.770;0.266;2022-12-16T10:00:25;6.60;99.90
54082;DHT22;39986;50.770;0.266;2022-12-16T10:03:24;7.70;99.90
54082;DHT22;39986;50.770;0.266;2022-12-16T10:06:21;8.70;99.90
54082;DHT22;39986;50.770;0.266;2022-12-16T10:09:19;10.10;99.90
54082;DHT22;39986;50.770;0.266;2022-12-16T10:15:01;13.50;99.90
54082;DHT22;39986;50.770;0.266;2022-12-16T10:17:46;14.60;99.90
54082;DHT22;39986;50.770;0.266;2022-12-16T10:26:12;16.70;94.90
54082;DHT22;39986;50.770;0.266;2022-12-16T10:29:20;17.00;92.40
54082;DHT22;39986;50.770;0.266;2022-12-16T10:34:56;17.60;90.60
54082;DHT22;39986;50.770;0.266;2022-12-16T10:37:40;18.60;85.80
54082;DHT22;39986;50.770;0.266;2022-12-16T10:40:26;18.90;83.60
54082;DHT22;39986;50.770;0.266;2022-12-16T10:43:15;19.50;80.20
54082;DHT22;39986;50.770;0.266;2022-12-16T10:46:04;20.20;74.20
54082;DHT22;39986;50.770;0.266;2022-12-16T10:48:51;20.70;71.50
54082;DHT22;39986;50.770;0.266;2022-12-16T10:51:35;20.80;66.90
54082;DHT22;39986;50.770;0.266;2022-12-16T10:57:12;20.80;65.60
54082;DHT22;39986;50.770;0.266;2022-12-16T11:00:08;21.10;64.10
54082;DHT22;39986;50.770;0.266;2022-12-16T11:02:53;21.80;62.40
54082;DHT22;39986;50.770;0.266;2022-12-16T11:05:37;21.80;60.90
54082;DHT22;39986;50.770;0.266;2022-12-16T11:08:31;22.20;59.20
54082;DHT22;39986;50.770;0.266;2022-12-16T11:11:23;22.30;58.70
54082;DHT22;39986;50.770;0.266;2022-12-16T11:23:08;25.40;51.70
54082;DHT22;39986;50.770;0.266;2022-12-16T11:26:02;26.00;49.00
54082;DHT22;39986;50.770;0.266;2022-12-16T11:29:01;26.30;48.30
54082;DHT22;39986;50.770;0.266;2022-12-16T11:31:47;26.50;47.30
54082;DHT22;39986;50.770;0.266;2022-12-16T11:34:32;26.90;47.20
54082;DHT22;39986;50.770;0.266;2022-12-16T11:37:16;27.20;45.00
54082;DHT22;39986;50.770;0.266;2022-12-16T11:40:02;27.70;44.00
54082;DHT22;39986;50.770;0.266;2022-12-16T11:42:46;27.90;43.80
54082;DHT22;39986;50.770;0.266;2022-12-16T11:45:31;28.20;43.00
54082;DHT22;39986;50.770;0.266;2022-12-16T11:48:23;28.50;41.60
54082;DHT22;39986;50.770;0.266;2022-12-16T11:51:12;28.50;41.60
54082;DHT22;39986;50.770;0.266;2022-12-16T11:53:59;28.80;41.10
54082;DHT22;39986;50.770;0.266;2022-12-16T11:56:45;28.80;40.60
54082;DHT22;39986;50.770;0.266;2022-12-16T11:59:44;28.30;40.80
54082;DHT22;39986;50.770;0.266;2022-12-16T12:05:14;28.40;40.20
54082;DHT22;39986;50.770;0.266;2022-12-16T12:08:00;28.60;40.40
54082;DHT22;39986;50.770;0.266;2022-12-16T12:16:53;29.80;39.30
54082;DHT22;39986;50.770;0.266;2022-12-16T12:19:48;30.20;38.60
54082;DHT22;39986;50.770;0.266;2022-12-16T12:22:35;30.20;38.30
54082;DHT22;39986;50.770;0.266;2022-12-16T12:28:25;30.90;37.50
54082;DHT22;39986;50.770;0.266;2022-12-16T12:31:15;31.30;36.20
54082;DHT22;39986;50.770;0.266;2022-12-16T12:37:01;31.60;36.00
54082;DHT22;39986;50.770;0.266;2022-12-16T12:39:51;31.80;35.90
54082;DHT22;39986;50.770;0.266;2022-12-16T12:42:41;32.00;35.40
54082;DHT22;39986;50.770;0.266;2022-12-16T12:45:44;32.00;35.00
54082;DHT22;39986;50.770;0.266;2022-12-16T12:57:11;32.60;34.50
54082;DHT22;39986;50.770;0.266;2022-12-16T12:59:58;32.90;34.50
54082;DHT22;39986;50.770;0.266;2022-12-16T13:02:53;32.90;34.40
54082;DHT22;39986;50.770;0.266;2022-12-16T13:05:41;32.70;33.00
54082;DHT22;39986;50.770;0.266;2022-12-16T13:11:16;32.80;33.60
54082;DHT22;39986;50.770;0.266;2022-12-16T13:14:00;32.50;33.10
54082;DHT22;39986;50.770;0.266;2022-12-16T13:22:28;32.70;34.20
54082;DHT22;39986;50.770;0.266;2022-12-16T13:25:33;32.70;33.90
54082;DHT22;39986;50.770;0.266;2022-12-16T13:28:35;33.00;33.90
54082;DHT22;39986;50.770;0.266;2022-12-16T13:31:19;33.20;33.40
54082;DHT22;39986;50.770;0.266;2022-12-16T13:37:01;34.00;33.20
54082;DHT22;39986;50.770;0.266;2022-12-16T13:40:03;33.60;33.10
54082;DHT22;39986;50.770;0.266;2022-12-16T13:42:49;33.40;33.10
54082;DHT22;39986;50.770;0.266;2022-12-16T13:48:37;33.40;32.40
54082;DHT22;39986;50.770;0.266;2022-12-16T13:57:22;32.00;33.30
54082;DHT22;39986;50.770;0.266;2022-12-16T14:00:17;31.60;32.90
54082;DHT22;39986;50.770;0.266;2022-12-16T14:03:02;31.20;33.70
54082;DHT22;39986;50.770;0.266;2022-12-16T14:05:47;30.90;34.10
54082;DHT22;39986;50.770;0.266;2022-12-16T14:08:33;30.80;35.10
54082;DHT22;39986;50.770;0.266;2022-12-16T14:14:13;30.20;34.00
54082;DHT22;39986;50.770;0.266;2022-12-16T14:17:01;28.40;35.20
54082;DHT22;39986;50.770;0.266;2022-12-16T14:25:33;19.70;45.60
54082;DHT22;39986;50.770;0.266;2022-12-16T14:31:05;15.50;55.80
54082;DHT22;39986;50.770;0.266;2022-12-16T14:33:52;14.20;62.40
54082;DHT22;39986;50.770;0.266;2022-12-16T14:36:38;13.20;73.00
54082;DHT22;39986;50.770;0.266;2022-12-16T14:39:27;12.40;82.80
54082;DHT22;39986;50.770;0.266;2022-12-16T14:45:16;11.30;92.40
54082;DHT22;39986;50.770;0.266;2022-12-16T14:49:04;10.90;96.10
54082;DHT22;39986;50.770;0.266;2022-12-16T14:57:01;10.00;99.90
54082;DHT22;39986;50.770;0.266;2022-12-16T14:59:45;10.10;99.90
54082;DHT22;39986;50.770;0.266;2022-12-16T15:02:30;9.50;99.90
54082;DHT22;39986;50.770;0.266;2022-12-16T15:05:16;9.30;99.90
54082;DHT22;39986;50.770;0.266;2022-12-16T15:08:01;9.10;99.90
54082;DHT22;39986;50.770;0.266;2022-12-16T15:10:45;9.00;99.90
54082;DHT22;39986;50.770;0.266;2022-12-16T15:13:29;8.60;99.90
54082;DHT22;39986;50.770;0.266;2022-12-16T15:16:15;9.00;99.90
54082;DHT22;39986;50.770;0.266;2022-12-16T15:19:01;8.40;99.90
54082;DHT22;39986;50.770;0.266;2022-12-16T15:21:46;8.20;99.90
54082;DHT22;39986;50.770;0.266;2022-12-16T15:24:56;8.10;99.90
54082;DHT22;39986;50.770;0.266;2022-12-16T15:27:42;8.10;99.90
54082;DHT22;39986;50.770;0.266;2022-12-16T15:30:39;7.90;99.90
54082;DHT22;39986;50.770;0.266;2022-12-16T15:33:25;7.80;99.90
54082;DHT22;39986;50.770;0.266;2022-12-16T15:36:29;7.90;99.90
54082;DHT22;39986;50.770;0.266;2022-12-16T15:39:28;7.50;99.90
54082;DHT22;39986;50.770;0.266;2022-12-16T15:42:17;7.40;99.90
54082;DHT22;39986;50.770;0.266;2022-12-16T15:45:02;7.20;99.90
54082;DHT22;39986;50.770;0.266;2022-12-16T15:47:48;7.20;99.90
54082;DHT22;39986;50.770;0.266;2022-12-16T15:50:32;7.20;99.90
54082;DHT22;39986;50.770;0.266;2022-12-16T15:53:25;6.90;99.90
54082;DHT22;39986;50.770;0.266;2022-12-16T15:56:24;6.70;99.90
54082;DHT22;39986;50.770;0.266;2022-12-16T15:59:12;6.60;99.90
54082;DHT22;39986;50.770;0.266;2022-12-16T16:01:57;6.50;99.90
54082;DHT22;39986;50.770;0.266;2022-12-16T16:04:41;6.40;99.90
54082;DHT22;39986;50.770;0.266;2022-12-16T16:07:44;6.30;99.90
54082;DHT22;39986;50.770;0.266;2022-12-16T16:10:28;6.20;99.90
54082;DHT22;39986;50.770;0.266;2022-12-16T16:13:12;6.10;99.90
54082;DHT22;39986;50.770;0.266;2022-12-16T16:15:56;6.90;99.90
54082;DHT22;39986;50.770;0.266;2022-12-16T16:18:41;6.00;99.90
54082;DHT22;39986;50.770;0.266;2022-12-16T16:21:25;6.30;99.90
54082;DHT22;39986;50.770;0.266;2022-12-16T16:24:10;5.80;99.90
54082;DHT22;39986;50.770;0.266;2022-12-16T16:26:54;5.70;99.90
54082;DHT22;39986;50.770;0.266;2022-12-16T16:29:40;5.70;99.90
54082;DHT22;39986;50.770;0.266;2022-12-16T16:32:24;5.70;99.90
54082;DHT22;39986;50.770;0.266;2022-12-16T16:35:08;5.50;99.90
54082;DHT22;39986;50.770;0.266;2022-12-16T16:37:52;5.50;99.90
54082;DHT22;39986;50.770;0.266;2022-12-16T16:40:37;6.50;99.90
54082;DHT22;39986;50.770;0.266;2022-12-16T16:43:22;5.30;99.90
54082;DHT22;39986;50.770;0.266;2022-12-16T16:46:20;5.30;99.90
54082;DHT22;39986;50.770;0.266;2022-12-16T16:49:09;5.20;99.90
54082;DHT22;39986;50.770;0.266;2022-12-16T16:51:54;5.20;99.90
54082;DHT22;39986;50.770;0.266;2022-12-16T16:54:38;5.20;99.90
54082;DHT22;39986;50.770;0.266;2022-12-16T16:57:22;5.10;99.90
54082;DHT22;39986;50.770;0.266;2022-12-16T17:00:08;5.20;99.90
54082;DHT22;39986;50.770;0.266;2022-12-16T17:02:53;5.10;99.90
54082;DHT22;39986;50.770;0.266;2022-12-16T17:05:37;5.10;99.90
54082;DHT22;39986;50.770;0.266;2022-12-16T17:08:21;5.00;99.90
54082;DHT22;39986;50.770;0.266;2022-12-16T17:11:09;5.00;99.90
54082;DHT22;39986;50.770;0.266;2022-12-16T17:13:58;4.90;99.90
54082;DHT22;39986;50.770;0.266;2022-12-16T17:16:42;4.80;99.90
54082;DHT22;39986;50.770;0.266;2022-12-16T17:19:27;4.90;99.90
54082;DHT22;39986;50.770;0.266;2022-12-16T17:22:11;4.80;99.90
54082;DHT22;39986;50.770;0.266;2022-12-16T17:24:55;5.30;99.90
54082;DHT22;39986;50.770;0.266;2022-12-16T17:27:39;5.40;99.90
54082;DHT22;39986;50.770;0.266;2022-12-16T17:30:27;4.60;99.90
54082;DHT22;39986;50.770;0.266;2022-12-16T17:33:11;4.60;99.90
54082;DHT22;39986;50.770;0.266;2022-12-16T17:35:56;4.50;99.90
54082;DHT22;39986;50.770;0.266;2022-12-16T17:38:41;4.40;99.90
54082;DHT22;39986;50.770;0.266;2022-12-16T17:41:26;4.40;99.90
54082;DHT22;39986;50.770;0.266;2022-12-16T17:44:10;4.40;99.90
54082;DHT22;39986;50.770;0.266;2022-12-16T17:50:05;4.20;99.90
54082;DHT22;39986;50.770;0.266;2022-12-16T17:52:53;4.20;99.90
54082;DHT22;39986;50.770;0.266;2022-12-16T17:55:37;4.20;99.90
54082;DHT22;39986;50.770;0.266;2022-12-16T17:58:27;4.10;99.90
54082;DHT22;39986;50.770;0.266;2022-12-16T18:01:12;5.30;99.90
54082;DHT22;39986;50.770;0.266;2022-12-16T18:03:56;4.10;99.90
54082;DHT22;39986;50.770;0.266;2022-12-16T18:06:40;4.00;99.90
54082;DHT22;39986;50.770;0.266;2022-12-16T18:09:25;4.00;99.90
54082;DHT22;39986;50.770;0.266;2022-12-16T18:12:09;4.00;99.90
54082;DHT22;39986;50.770;0.266;2022-12-16T18:14:53;4.10;99.90
54082;DHT22;39986;50.770;0.266;2022-12-16T18:17:37;4.30;99.90
54082;DHT22;39986;50.770;0.266;2022-12-16T18:20:21;4.10;99.90
54082;DHT22;39986;50.770;0.266;2022-12-16T18:23:05;3.90;99.90
54082;DHT22;39986;50.770;0.266;2022-12-16T18:25:56;3.90;99.90
54082;DHT22;39986;50.770;0.266;2022-12-16T18:28:39;3.90;99.90
54082;DHT22;39986;50.770;0.266;2022-12-16T18:31:24;4.00;99.90
54082;DHT22;39986;50.770;0.266;2022-12-16T18:34:08;3.70;99.90
54082;DHT22;39986;50.770;0.266;2022-12-16T18:36:52;3.70;99.90
54082;DHT22;39986;50.770;0.266;2022-12-16T18:39:37;3.70;99.90
54082;DHT22;39986;50.770;0.266;2022-12-16T18:42:20;3.70;99.90
54082;DHT22;39986;50.770;0.266;2022-12-16T18:45:05;3.70;99.90
54082;DHT22;39986;50.770;0.266;2022-12-16T18:47:49;3.60;99.90
54082;DHT22;39986;50.770;0.266;2022-12-16T18:50:34;3.60;99.90
54082;DHT22;39986;50.770;0.266;2022-12-16T18:53:18;4.00;99.90
54082;DHT22;39986;50.770;0.266;2022-12-16T18:56:06;3.90;99.90
54082;DHT22;39986;50.770;0.266;2022-12-16T18:58:50;3.50;99.90
54082;DHT22;39986;50.770;0.266;2022-12-16T19:01:36;3.50;99.90
54082;DHT22;39986;50.770;0.266;2022-12-16T19:04:20;3.50;99.90
54082;DHT22;39986;50.770;0.266;2022-12-16T19:07:04;3.50;99.90
54082;DHT22;39986;50.770;0.266;2022-12-16T19:09:48;3.40;99.90
54082;DHT22;39986;50.770;0.266;2022-12-16T19:12:32;3.40;99.90
54082;DHT22;39986;50.770;0.266;2022-12-16T19:15:16;3.40;99.90
54082;DHT22;39986;50.770;0.266;2022-12-16T19:18:00;3.40;99.90
54082;DHT22;39986;50.770;0.266;2022-12-16T19:20:50;3.20;99.90
54082;DHT22;39986;50.770;0.266;2022-12-16T19:23:34;3.20;99.90